Time;durP1;ratioP1;P1;durP2;ratioP2;P2;SDS_P1;SDS_P2;PMS_P1;PMS_P2;Temp;Humidity;BMP_temperature;BMP_pressure;BME280_temperature;BME280_humidity;BME280_pressure;Samples;Min_cycle;Max_cycle;Signal;HPM_P1;HPM_P2
2022/04/08 00:01:15;;;;;;;0.00;0.00;;;11.50;99.90;;;;;;5091342;28;20028;-75
2022/04/08 00:03:41;;;;;;;0.00;0.00;;;11.50;99.90;;;;;;5091266;28;20556;-74
2022/04/08 00:06:08;;;;;;;0.00;0.00;;;11.50;99.90;;;;;;5092890;28;20033;-75
2022/04/08 00:08:34;;;;;;;0.03;0.03;;;11.50;99.90;;;;;;5092696;28;20024;-75
2022/04/08 00:11:00;;;;;;;0.00;0.00;;;11.50;99.90;;;;;;5092548;28;20480;-75
2022/04/08 00:13:26;;;;;;;0.00;0.00;;;11.50;99.90;;;;;;5091870;28;20051;-75
2022/04/08 00:15:51;;;;;;;0.00;0.00;;;11.60;99.90;;;;;;5092813;28;20490;-75
2022/04/08 00:18:17;;;;;;;0.00;0.00;;;11.60;99.90;;;;;;5090706;28;20027;-74
2022/04/08 00:20:43;;;;;;;0.00;0.00;;;11.70;99.90;;;;;;5092721;28;20028;-75
2022/04/08 00:23:09;;;;;;;0.00;0.00;;;11.80;99.90;;;;;;5092712;28;20386;-75
2022/04/08 00:25:35;;;;;;;0.05;0.05;;;12.00;99.90;;;;;;5092672;28;20078;-75
2022/04/08 00:28:01;;;;;;;0.05;0.05;;;12.20;99.90;;;;;;5092406;28;20020;-73
2022/04/08 00:30:27;;;;;;;0.00;0.00;;;12.30;99.90;;;;;;5092056;28;20501;-72
2022/04/08 00:32:56;;;;;;;0.98;0.43;;;12.30;99.90;;;;;;5091961;28;20020;-75
2022/04/08 00:35:22;;;;;;;0.00;0.00;;;12.30;99.90;;;;;;5089722;28;20043;-76
2022/04/08 00:37:49;;;;;;;1.02;0.30;;;12.30;99.90;;;;;;5079836;28;20029;-75
2022/04/08 00:40:15;;;;;;;7.72;2.63;;;12.30;99.90;;;;;;5070906;28;20024;-75
2022/04/08 00:42:42;;;;;;;0.08;0.08;;;12.40;99.90;;;;;;5072199;28;20408;-72
2022/04/08 00:45:07;;;;;;;0.00;0.00;;;12.40;99.90;;;;;;5072422;28;20039;-75
2022/04/08 00:47:35;;;;;;;3.10;1.48;;;12.40;99.90;;;;;;5071868;28;20471;-75
2022/04/08 00:50:03;;;;;;;2.78;0.68;;;12.40;99.90;;;;;;5071907;28;20039;-75
2022/04/08 00:52:29;;;;;;;0.65;0.65;;;12.40;99.90;;;;;;5081097;28;20070;-72
2022/04/08 00:54:56;;;;;;;0.93;0.10;;;12.40;99.90;;;;;;5096165;28;20412;-75
2022/04/08 00:57:22;;;;;;;4.68;2.20;;;12.40;99.90;;;;;;5094716;28;20058;-75
2022/04/08 00:59:48;;;;;;;0.10;0.10;;;12.40;99.90;;;;;;5096355;28;20021;-74
2022/04/08 01:02:15;;;;;;;2.83;1.98;;;12.40;99.90;;;;;;5084009;28;20036;-75
2022/04/08 01:04:43;;;;;;;0.05;0.05;;;12.40;99.90;;;;;;5075335;28;20024;-75
2022/04/08 01:07:09;;;;;;;19.17;0.52;;;12.50;99.90;;;;;;5075795;28;20107;-74
2022/04/08 01:09:35;;;;;;;3.03;1.13;;;12.50;99.90;;;;;;5073899;28;20111;-74
2022/04/08 01:12:00;;;;;;;1.17;1.08;;;12.50;99.90;;;;;;5075274;28;20032;-75
2022/04/08 01:14:26;;;;;;;1.50;1.38;;;12.50;99.90;;;;;;5074201;28;20021;-74
2022/04/08 01:16:52;;;;;;;0.25;0.15;;;12.50;99.90;;;;;;5075281;28;20033;-74
2022/04/08 01:19:17;;;;;;;2.92;2.67;;;12.50;99.90;;;;;;5074984;28;20479;-72
2022/04/08 01:21:43;;;;;;;0.10;0.10;;;12.60;99.90;;;;;;5075135;28;20035;-75
2022/04/08 01:24:12;;;;;;;0.57;0.50;;;12.60;99.90;;;;;;5074940;28;20028;-74
2022/04/08 01:26:39;;;;;;;0.65;0.65;;;12.60;99.90;;;;;;5075044;28;20388;-74
2022/04/08 01:29:04;;;;;;;9.75;3.05;;;12.50;99.90;;;;;;5075055;28;20037;-75
2022/04/08 01:31:30;;;;;;;0.03;0.03;;;12.50;99.90;;;;;;5084274;28;20024;-76
2022/04/08 01:33:56;;;;;;;11.18;0.52;;;12.50;99.90;;;;;;5095084;28;20024;-71
2022/04/08 01:36:22;;;;;;;1.13;1.00;;;12.50;99.90;;;;;;5094552;28;20460;-75
2022/04/08 01:38:47;;;;;;;0.73;0.70;;;12.50;99.90;;;;;;5075207;28;20529;-75
2022/04/08 01:41:16;;;;;;;21.60;1.48;;;12.50;99.90;;;;;;5075178;28;20082;-74
2022/04/08 01:43:42;;;;;;;1.08;0.77;;;12.50;99.90;;;;;;5074811;28;20067;-74
2022/04/08 01:46:08;;;;;;;0.40;0.40;;;12.60;99.90;;;;;;5073757;28;20468;-75
2022/04/08 01:48:34;;;;;;;3.58;1.20;;;12.60;99.90;;;;;;5074488;28;20089;-73
2022/04/08 01:50:59;;;;;;;0.00;0.00;;;12.50;99.90;;;;;;5074872;28;20525;-75
2022/04/08 01:53:25;;;;;;;0.22;0.22;;;12.50;99.90;;;;;;5087348;28;20162;-75
2022/04/08 01:55:51;;;;;;;4.70;2.00;;;12.60;99.90;;;;;;5094655;28;20497;-75
2022/04/08 01:58:16;;;;;;;0.00;0.00;;;12.50;99.90;;;;;;5094301;28;20019;-75
2022/04/08 02:00:42;;;;;;;0.68;0.68;;;12.50;99.90;;;;;;5094594;28;20030;-73
2022/04/08 02:03:09;;;;;;;4.68;1.75;;;12.50;99.90;;;;;;5094252;28;20466;-74
2022/04/08 02:05:35;;;;;;;0.55;0.50;;;12.50;99.90;;;;;;5094582;28;20020;-71
2022/04/08 02:08:01;;;;;;;0.35;0.35;;;12.50;99.90;;;;;;5094744;28;20024;-75
2022/04/08 02:10:26;;;;;;;0.55;0.55;;;12.50;99.90;;;;;;5094186;28;20024;-74
2022/04/08 02:12:53;;;;;;;0.10;0.08;;;12.50;99.90;;;;;;5094590;28;20052;-73
2022/04/08 02:15:34;;;;;;;0.10;0.10;;;12.60;99.90;;;;;;5093944;28;20119;-73
2022/04/08 02:18:01;;;;;;;0.00;0.00;;;12.50;99.90;;;;;;5094317;28;20368;-76
2022/04/08 02:20:30;;;;;;;0.00;0.00;;;12.50;99.90;;;;;;5094330;28;20028;-75
2022/04/08 02:22:55;;;;;;;5.38;0.65;;;12.60;99.90;;;;;;5094498;28;20024;-75
2022/04/08 02:25:21;;;;;;;1.25;1.17;;;12.50;99.90;;;;;;5094207;28;20431;-74
2022/04/08 02:27:47;;;;;;;0.10;0.10;;;12.50;99.90;;;;;;5093449;28;20020;-71
2022/04/08 02:30:13;;;;;;;0.55;0.55;;;12.50;99.90;;;;;;5094127;28;20149;-74
2022/04/08 02:32:39;;;;;;;6.35;2.15;;;12.50;99.90;;;;;;5093109;28;20020;-74
2022/04/08 02:35:05;;;;;;;0.15;0.15;;;12.50;99.90;;;;;;5093953;28;20039;-72
2022/04/08 02:37:31;;;;;;;2.08;1.42;;;12.50;99.90;;;;;;5092819;28;20027;-75
2022/04/08 02:39:57;;;;;;;0.98;0.90;;;12.50;99.90;;;;;;5094181;28;20487;-76
2022/04/08 02:42:23;;;;;;;1.30;1.30;;;12.50;99.90;;;;;;5094179;28;20048;-75
2022/04/08 02:44:48;;;;;;;1.25;1.13;;;12.60;99.90;;;;;;5093653;28;20055;-75
2022/04/08 02:47:14;;;;;;;2.95;0.43;;;12.60;99.90;;;;;;5093859;28;20025;-72
2022/04/08 02:49:40;;;;;;;3.00;1.25;;;12.50;99.90;;;;;;5093584;28;20089;-75
2022/04/08 02:52:06;;;;;;;2.10;1.75;;;12.50;99.90;;;;;;5096673;28;20095;-74
2022/04/08 02:54:32;;;;;;;1.73;1.63;;;12.50;99.90;;;;;;5113884;28;20028;-74
2022/04/08 02:56:57;;;;;;;3.50;3.20;;;12.50;99.90;;;;;;5114095;28;20143;-76
2022/04/08 02:59:23;;;;;;;1.10;0.93;;;12.50;99.90;;;;;;5114016;28;20042;-75
2022/04/08 03:01:48;;;;;;;4.78;2.00;;;12.50;99.90;;;;;;5105939;28;20024;-72
2022/04/08 03:04:14;;;;;;;1.90;1.17;;;12.50;99.90;;;;;;5093131;28;20099;-75
2022/04/08 03:06:40;;;;;;;1.90;1.45;;;12.50;99.90;;;;;;5093398;28;20026;-76
2022/04/08 03:09:06;;;;;;;6.32;1.13;;;12.50;99.90;;;;;;5092943;28;20024;-77
2022/04/08 03:11:33;;;;;;;1.27;1.15;;;12.50;99.90;;;;;;5093242;28;20103;-77
2022/04/08 03:14:01;;;;;;;3.45;2.10;;;12.50;99.90;;;;;;5092964;28;20105;-77
2022/04/08 03:16:27;;;;;;;32.33;5.53;;;12.50;99.90;;;;;;5092128;28;20372;-78
2022/04/08 03:18:53;;;;;;;4.35;2.42;;;12.50;99.90;;;;;;5092875;28;20031;-77
2022/04/08 03:21:19;;;;;;;1.55;1.45;;;12.40;99.90;;;;;;5093357;28;20099;-78
2022/04/08 03:23:44;;;;;;;0.85;0.80;;;12.40;99.90;;;;;;5093420;28;20577;-78
2022/04/08 03:26:10;;;;;;;1.08;0.90;;;12.40;99.90;;;;;;5093368;28;20027;-78
2022/04/08 03:28:36;;;;;;;0.65;0.60;;;12.50;99.90;;;;;;5092948;28;20012;-77
2022/04/08 03:31:01;;;;;;;0.40;0.40;;;12.50;99.90;;;;;;5091868;28;20035;-77
2022/04/08 03:33:27;;;;;;;0.10;0.10;;;12.40;99.90;;;;;;5092959;28;20024;-76
2022/04/08 03:35:53;;;;;;;3.20;0.80;;;12.50;99.90;;;;;;5093142;28;20099;-78
2022/04/08 03:38:19;;;;;;;0.50;0.50;;;12.50;99.90;;;;;;5076490;28;20087;-73
2022/04/08 03:40:44;;;;;;;0.47;0.47;;;12.50;99.90;;;;;;5072841;28;20021;-78
2022/04/08 03:43:10;;;;;;;4.15;1.45;;;12.40;99.90;;;;;;5072173;28;20044;-78
2022/04/08 03:45:35;;;;;;;2.53;0.45;;;12.50;99.90;;;;;;5072786;28;20024;-77
2022/04/08 03:48:02;;;;;;;0.10;0.10;;;12.50;99.90;;;;;;5072805;28;20507;-75
2022/04/08 03:50:28;;;;;;;0.47;0.47;;;12.50;99.90;;;;;;5072612;28;20104;-77
2022/04/08 03:52:54;;;;;;;2.72;1.83;;;12.50;99.90;;;;;;5082533;28;20591;-75
2022/04/08 03:55:20;;;;;;;1.13;1.02;;;12.50;99.90;;;;;;5092960;28;20395;-77
2022/04/08 03:57:46;;;;;;;0.82;0.55;;;12.50;99.90;;;;;;5093093;28;20028;-78
2022/04/08 04:00:13;;;;;;;0.50;0.50;;;12.50;99.90;;;;;;5091187;28;20050;-78
2022/04/08 04:02:38;;;;;;;2.35;2.15;;;12.60;99.90;;;;;;5077770;28;20434;-76
2022/04/08 04:05:05;;;;;;;1.35;1.08;;;12.60;99.90;;;;;;5072468;28;20021;-78
2022/04/08 04:07:32;;;;;;;2.55;1.42;;;12.50;99.90;;;;;;5072982;28;20025;-77
2022/04/08 04:09:59;;;;;;;8.10;1.02;;;12.50;99.90;;;;;;5071053;28;20028;-75
2022/04/08 04:12:26;;;;;;;0.77;0.77;;;12.50;99.90;;;;;;5072421;28;20095;-74
2022/04/08 04:14:53;;;;;;;0.68;0.55;;;12.50;99.90;;;;;;5071925;28;20074;-77
2022/04/08 04:17:19;;;;;;;1.35;1.25;;;12.40;99.90;;;;;;5072441;28;20029;-75
2022/04/08 04:19:45;;;;;;;13.70;3.30;;;12.40;99.90;;;;;;5070392;28;20028;-75
2022/04/08 04:22:10;;;;;;;2.60;0.82;;;12.30;99.90;;;;;;5072606;28;20028;-77
2022/04/08 04:24:36;;;;;;;4.45;1.08;;;12.30;99.90;;;;;;5071502;28;20033;-76
2022/04/08 04:27:02;;;;;;;3.00;0.88;;;12.20;99.90;;;;;;5074765;28;20020;-75
2022/04/08 04:29:27;;;;;;;4.90;3.38;;;12.20;99.90;;;;;;5076208;28;20031;-76
2022/04/08 04:31:55;;;;;;;1.30;1.15;;;12.20;99.90;;;;;;5088647;28;20510;-77
2022/04/08 04:34:23;;;;;;;0.30;0.30;;;12.20;99.90;;;;;;5096056;28;20578;-77
2022/04/08 04:36:49;;;;;;;0.00;0.00;;;12.10;99.90;;;;;;5093163;28;20031;-77
2022/04/08 04:39:14;;;;;;;6.25;2.10;;;12.10;99.90;;;;;;5075483;28;20028;-77
2022/04/08 04:41:40;;;;;;;3.83;0.63;;;12.10;99.90;;;;;;5076238;28;20085;-78
2022/04/08 04:44:05;;;;;;;16.08;2.13;;;12.10;99.90;;;;;;5075824;28;20101;-75
2022/04/08 04:46:31;;;;;;;1.67;1.58;;;12.10;99.90;;;;;;5076154;28;20047;-78
2022/04/08 04:48:57;;;;;;;9.07;1.90;;;12.10;99.90;;;;;;5075599;28;20537;-74
2022/04/08 04:51:22;;;;;;;0.00;0.00;;;12.10;99.90;;;;;;5076013;28;20149;-73
2022/04/08 04:53:48;;;;;;;21.58;1.10;;;12.00;99.90;;;;;;5091421;28;20043;-78
2022/04/08 04:56:14;;;;;;;5.93;3.20;;;12.00;99.90;;;;;;5092848;28;20548;-78
2022/04/08 04:58:39;;;;;;;0.50;0.50;;;12.00;99.90;;;;;;5095955;28;20066;-78
2022/04/08 05:01:05;;;;;;;0.40;0.40;;;12.00;99.90;;;;;;5093861;28;20024;-78
2022/04/08 05:03:30;;;;;;;0.82;0.82;;;12.00;99.90;;;;;;5074951;28;20028;-76
2022/04/08 05:05:56;;;;;;;0.55;0.55;;;12.00;99.90;;;;;;5083596;28;20402;-78
2022/04/08 05:08:22;;;;;;;1.75;1.48;;;12.00;99.90;;;;;;5094032;28;20031;-74
2022/04/08 05:10:48;;;;;;;0.95;0.55;;;12.00;99.90;;;;;;5095086;28;20099;-78
2022/04/08 05:13:13;;;;;;;6.03;1.17;;;12.00;99.90;;;;;;5095390;28;20020;-77
2022/04/08 05:15:42;;;;;;;1.20;1.10;;;12.00;99.90;;;;;;5094227;28;20039;-74
2022/04/08 05:18:09;;;;;;;3.30;0.80;;;12.00;99.90;;;;;;5093464;28;20138;-74
2022/04/08 05:20:35;;;;;;;1.33;1.23;;;12.00;99.90;;;;;;5095476;28;20028;-77
2022/04/08 05:23:01;;;;;;;1.05;0.75;;;12.00;99.90;;;;;;5095312;28;20039;-79
2022/04/08 05:25:26;;;;;;;2.63;1.35;;;12.00;99.90;;;;;;5095450;28;20027;-78
2022/04/08 05:27:53;;;;;;;0.00;0.00;;;12.00;99.90;;;;;;5094678;28;20095;-78
2022/04/08 05:30:19;;;;;;;1.73;1.58;;;12.00;99.90;;;;;;5095336;28;20020;-75
2022/04/08 05:32:48;;;;;;;3.83;2.13;;;12.00;99.90;;;;;;5094286;28;20043;-75
2022/04/08 05:35:15;;;;;;;0.10;0.10;;;12.00;99.90;;;;;;5094698;28;20406;-78
2022/04/08 05:37:45;;;;;;;2.25;1.27;;;12.00;99.90;;;;;;5094904;28;20020;-75
2022/04/08 05:40:18;;;;;;;2.85;2.42;;;12.00;99.90;;;;;;5094307;28;20026;-79
2022/04/08 05:42:45;;;;;;;10.30;1.55;;;12.00;99.90;;;;;;5094933;28;20047;-77
2022/04/08 05:45:12;;;;;;;0.10;0.10;;;12.10;99.90;;;;;;5094670;28;20024;-79
2022/04/08 05:47:38;;;;;;;0.80;0.63;;;12.10;99.90;;;;;;5096752;28;20405;-76
2022/04/08 05:50:05;;;;;;;2.30;0.82;;;12.20;99.90;;;;;;5093225;28;20024;-80
2022/04/08 05:52:31;;;;;;;2.17;0.90;;;12.20;99.90;;;;;;5093676;28;20522;-79
2022/04/08 05:54:57;;;;;;;0.55;0.55;;;12.30;99.90;;;;;;5094132;28;20032;-79
2022/04/08 05:57:23;;;;;;;2.13;1.98;;;12.20;99.90;;;;;;5093957;28;20052;-79
2022/04/08 05:59:49;;;;;;;1.92;1.83;;;12.30;99.90;;;;;;5094501;28;20067;-76
2022/04/08 06:02:16;;;;;;;1.42;0.08;;;12.30;99.90;;;;;;5089172;28;20020;-79
2022/04/08 06:04:42;;;;;;;2.15;1.95;;;12.40;99.90;;;;;;5073353;28;20484;-80
2022/04/08 06:07:08;;;;;;;0.10;0.10;;;12.40;99.90;;;;;;5074159;28;20043;-78
2022/04/08 06:09:34;;;;;;;2.17;1.17;;;12.40;99.90;;;;;;5073371;28;20029;-77
2022/04/08 06:11:59;;;;;;;2.63;0.55;;;12.40;99.90;;;;;;5074169;28;20017;-79
2022/04/08 06:14:26;;;;;;;2.00;1.40;;;12.50;99.90;;;;;;5073825;28;20396;-78
2022/04/08 06:16:55;;;;;;;7.65;1.73;;;12.50;99.90;;;;;;5084841;28;20028;-78
2022/04/08 06:19:20;;;;;;;0.00;0.00;;;12.60;99.90;;;;;;5090575;28;20036;-79
2022/04/08 06:21:46;;;;;;;7.43;2.95;;;12.60;99.90;;;;;;5092578;28;20440;-78
2022/04/08 06:24:12;;;;;;;8.93;2.00;;;12.60;99.90;;;;;;5092635;28;20051;-79
2022/04/08 06:26:38;;;;;;;1.05;1.02;;;12.70;99.90;;;;;;5084295;28;20027;-78
2022/04/08 06:29:04;;;;;;;4.78;1.58;;;12.60;99.90;;;;;;5089941;28;20042;-79
2022/04/08 06:31:31;;;;;;;0.80;0.80;;;12.80;99.90;;;;;;5091601;28;20024;-75
2022/04/08 06:33:58;;;;;;;0.80;0.65;;;12.80;99.90;;;;;;5091885;28;20118;-80
2022/04/08 06:36:25;;;;;;;1.98;1.55;;;12.90;99.90;;;;;;5091522;28;20042;-74
2022/04/08 06:38:51;;;;;;;0.40;0.40;;;13.00;99.90;;;;;;5090998;28;20050;-78
2022/04/08 06:41:16;;;;;;;0.70;0.70;;;13.00;99.90;;;;;;5091186;28;20023;-79
2022/04/08 06:43:42;;;;;;;0.10;0.10;;;13.00;99.90;;;;;;5091838;28;20052;-77
2022/04/08 06:46:07;;;;;;;0.55;0.55;;;13.10;99.90;;;;;;5090983;28;20475;-76
2022/04/08 06:48:33;;;;;;;0.38;0.38;;;13.10;99.90;;;;;;5103965;28;20030;-78
2022/04/08 06:51:00;;;;;;;0.73;0.47;;;13.10;99.90;;;;;;5091293;28;20022;-77
2022/04/08 06:53:26;;;;;;;8.77;0.68;;;13.10;99.90;;;;;;5090937;28;20023;-79
2022/04/08 06:55:52;;;;;;;0.43;0.43;;;13.10;99.90;;;;;;5091076;28;20028;-79
2022/04/08 06:58:19;;;;;;;0.85;0.82;;;13.10;99.90;;;;;;5085376;28;20024;-78
2022/04/08 07:00:45;;;;;;;1.98;1.20;;;13.10;99.90;;;;;;5088193;28;20048;-77
2022/04/08 07:03:11;;;;;;;24.33;1.27;;;13.20;99.90;;;;;;5090364;28;20083;-79
2022/04/08 07:05:36;;;;;;;0.32;0.32;;;13.20;99.90;;;;;;5089115;28;20024;-76
2022/04/08 07:08:02;;;;;;;0.10;0.10;;;13.10;99.90;;;;;;5089610;28;20097;-77
2022/04/08 07:10:28;;;;;;;10.88;0.80;;;12.90;99.90;;;;;;5086664;28;20558;-78
2022/04/08 07:12:54;;;;;;;5.45;2.10;;;12.60;99.90;;;;;;5087790;28;20032;-79
2022/04/08 07:15:20;;;;;;;1.75;1.65;;;12.20;99.90;;;;;;5087605;28;20032;-79
2022/04/08 07:17:45;;;;;;;0.28;0.20;;;11.90;99.90;;;;;;5087943;28;20527;-80
2022/04/08 07:20:13;;;;;;;0.20;0.20;;;11.70;99.90;;;;;;5087142;28;20028;-79
2022/04/08 07:22:40;;;;;;;0.00;0.00;;;11.60;99.90;;;;;;5088336;28;20020;-75
2022/04/08 07:25:06;;;;;;;0.80;0.47;;;11.60;99.90;;;;;;5087967;28;20051;-77
2022/04/08 07:27:45;;;;;;;1.63;1.38;;;11.60;99.90;;;;;;5091754;28;20036;-78
2022/04/08 07:30:12;;;;;;;12.40;1.48;;;11.70;99.90;;;;;;5083104;28;20043;-79
2022/04/08 07:32:38;;;;;;;1.55;1.38;;;11.80;99.90;;;;;;5086939;28;20099;-80
2022/04/08 07:35:04;;;;;;;0.20;0.20;;;11.90;99.90;;;;;;5087455;28;20115;-79
2022/04/08 07:37:30;;;;;;;12.77;0.93;;;11.90;99.90;;;;;;5087427;28;20075;-79
2022/04/08 07:39:57;;;;;;;0.25;0.25;;;12.00;99.90;;;;;;5084177;28;20031;-75
2022/04/08 07:42:25;;;;;;;0.30;0.30;;;12.00;99.90;;;;;;5089314;28;20043;-77
2022/04/08 07:44:52;;;;;;;0.10;0.10;;;12.10;99.90;;;;;;5089267;28;20510;-77
2022/04/08 07:47:19;;;;;;;1.55;0.73;;;12.20;99.90;;;;;;5079215;28;20029;-80
2022/04/08 07:49:45;;;;;;;1.08;0.82;;;12.20;99.90;;;;;;5080445;28;20023;-80
2022/04/08 07:52:11;;;;;;;0.45;0.45;;;12.20;99.90;;;;;;5083005;28;20024;-80
2022/04/08 07:54:37;;;;;;;0.75;0.15;;;12.30;99.90;;;;;;5085751;28;20081;-77
2022/04/08 07:57:03;;;;;;;1.05;1.02;;;12.30;99.90;;;;;;5085513;28;20323;-78
2022/04/08 07:59:29;;;;;;;1.38;1.27;;;12.30;99.90;;;;;;5088833;28;20060;-80
2022/04/08 08:01:54;;;;;;;1.13;0.70;;;12.30;99.90;;;;;;5092288;28;20081;-80
2022/04/08 08:04:21;;;;;;;0.35;0.35;;;12.40;99.90;;;;;;5090466;28;20016;-75
2022/04/08 08:06:47;;;;;;;1.98;1.85;;;12.40;99.90;;;;;;5089165;28;20021;-75
2022/04/08 08:09:13;;;;;;;1.80;0.98;;;12.50;99.90;;;;;;5091365;28;20027;-79
2022/04/08 08:11:38;;;;;;;4.47;2.03;;;12.60;99.90;;;;;;5091632;28;20105;-80
2022/04/08 08:14:04;;;;;;;2.20;2.00;;;12.60;99.90;;;;;;5093405;28;20035;-80
2022/04/08 08:16:30;;;;;;;0.22;0.22;;;12.70;99.90;;;;;;5093599;28;20055;-79
2022/04/08 08:18:56;;;;;;;1.30;0.90;;;12.80;99.90;;;;;;5098870;28;20119;-76
2022/04/08 08:21:25;;;;;;;0.52;0.50;;;12.90;99.90;;;;;;5092515;28;20031;-80
2022/04/08 08:23:52;;;;;;;0.25;0.22;;;13.10;99.90;;;;;;5093229;28;20032;-81
2022/04/08 08:26:17;;;;;;;17.38;1.27;;;13.20;99.90;;;;;;5091029;28;20481;-75
2022/04/08 08:28:43;;;;;;;0.20;0.20;;;13.20;99.90;;;;;;5092603;28;20059;-77
2022/04/08 08:31:09;;;;;;;1.42;1.33;;;13.30;99.90;;;;;;5093324;28;20017;-77
2022/04/08 08:33:35;;;;;;;0.98;0.70;;;13.30;99.90;;;;;;5092838;28;20062;-79
2022/04/08 08:36:02;;;;;;;15.35;2.42;;;13.40;99.90;;;;;;5091251;28;20031;-78
2022/04/08 08:38:27;;;;;;;0.75;0.45;;;13.50;99.90;;;;;;5085969;28;20399;-79
2022/04/08 08:40:53;;;;;;;1.40;1.30;;;13.50;99.90;;;;;;5092817;28;20028;-80
2022/04/08 08:43:19;;;;;;;9.00;0.82;;;13.50;99.90;;;;;;5084006;28;20079;-81
2022/04/08 08:45:48;;;;;;;0.80;0.80;;;13.60;99.90;;;;;;5093441;28;20082;-75
2022/04/08 08:48:15;;;;;;;0.75;0.43;;;13.70;99.90;;;;;;5091910;28;20032;-78
2022/04/08 08:50:46;;;;;;;0.22;0.20;;;13.80;99.90;;;;;;5092455;28;20506;-79
2022/04/08 08:53:16;;;;;;;0.50;0.50;;;13.70;99.90;;;;;;5092418;28;20024;-78
2022/04/08 08:55:41;;;;;;;0.60;0.60;;;13.70;99.90;;;;;;5087537;28;20055;-78
2022/04/08 08:58:08;;;;;;;1.45;0.80;;;13.70;99.90;;;;;;5092083;28;20035;-76
2022/04/08 09:00:35;;;;;;;0.10;0.10;;;13.70;99.90;;;;;;5092686;28;20173;-75
2022/04/08 09:03:03;;;;;;;5.88;2.38;;;13.70;99.90;;;;;;5092451;28;20441;-76
2022/04/08 09:05:29;;;;;;;2.85;0.50;;;13.80;99.90;;;;;;5092718;28;20031;-79
2022/04/08 09:07:59;;;;;;;23.17;2.78;;;13.90;99.90;;;;;;5092263;28;20035;-77
2022/04/08 09:10:31;;;;;;;4.38;1.10;;;13.90;99.90;;;;;;5088118;28;20020;-77
2022/04/08 09:12:58;;;;;;;0.13;0.13;;;13.90;99.90;;;;;;5090716;28;20028;-75
2022/04/08 09:15:24;;;;;;;8.55;1.45;;;13.80;99.90;;;;;;5095427;28;20398;-79
2022/04/08 09:17:51;;;;;;;1.48;1.38;;;13.80;99.90;;;;;;5088720;28;20072;-80
2022/04/08 09:20:17;;;;;;;24.63;1.33;;;13.90;99.90;;;;;;5091952;28;20027;-78
2022/04/08 09:22:51;;;;;;;1.00;0.80;;;13.90;99.90;;;;;;5088561;28;20037;-74
2022/04/08 09:25:19;;;;;;;0.10;0.10;;;14.00;99.90;;;;;;5084644;28;20511;-76
2022/04/08 09:27:45;;;;;;;4.03;2.10;;;14.10;99.90;;;;;;5090052;28;20419;-76
2022/04/08 09:30:18;;;;;;;3.67;1.05;;;14.20;99.90;;;;;;5091360;28;20032;-78
2022/04/08 09:32:44;;;;;;;;;;;14.90;99.90;;;;;;5091398;28;20040;-78
2022/04/08 09:35:18;;;;;;;0.10;0.10;;;15.70;99.90;;;;;;5091695;28;20038;-76
2022/04/08 09:38:01;;;;;;;0.80;0.80;;;17.90;99.90;;;;;;5085117;28;20073;-76
2022/04/08 09:40:36;;;;;;;;;;;17.10;99.90;;;;;;5090023;28;20097;-80
2022/04/08 09:43:02;;;;;;;1.27;1.17;;;16.10;99.90;;;;;;5094063;28;20481;-78
2022/04/08 09:45:30;;;;;;;0.20;0.20;;;15.40;99.90;;;;;;5090349;28;20076;-75
2022/04/08 09:48:00;;;;;;;3.20;1.08;;;15.10;99.90;;;;;;5083795;28;20392;-79
2022/04/08 09:50:26;;;;;;;2.53;0.38;;;14.80;99.90;;;;;;5090974;28;20020;-76
2022/04/08 09:52:53;;;;;;;2.28;1.10;;;14.50;99.90;;;;;;5092074;28;20020;-80
2022/04/08 09:55:21;;;;;;;1.65;1.02;;;14.40;99.90;;;;;;5093150;28;20564;-79
2022/04/08 09:57:49;;;;;;;10.77;1.08;;;14.50;99.90;;;;;;5096458;28;20073;-77
2022/04/08 10:00:16;;;;;;;1.55;1.45;;;14.50;99.90;;;;;;5088294;28;20028;-80
2022/04/08 10:02:45;;;;;;;0.30;0.30;;;14.40;99.90;;;;;;5090137;28;20043;-77
2022/04/08 10:05:11;;;;;;;23.88;3.78;;;14.30;99.90;;;;;;5090574;28;20027;-80
2022/04/08 10:07:39;;;;;;;16.20;2.97;;;14.20;99.90;;;;;;5088177;28;20099;-80
2022/04/08 10:10:24;;;;;;;8.15;0.60;;;14.20;99.90;;;;;;5091989;28;20543;-79
2022/04/08 10:12:53;;;;;;;0.40;0.40;;;14.20;99.90;;;;;;5078263;28;20036;-78
2022/04/08 10:15:29;;;;;;;0.82;0.68;;;14.30;99.90;;;;;;5082276;28;20036;-75
2022/04/08 10:18:00;;;;;;;1.50;1.27;;;14.40;99.90;;;;;;5089946;28;20046;-77
2022/04/08 10:20:28;;;;;;;1.65;0.43;;;14.30;99.90;;;;;;5093854;28;20062;-78
2022/04/08 10:23:33;;;;;;;0.20;0.20;;;14.20;99.90;;;;;;5093842;28;20019;-77
2022/04/08 10:25:59;;;;;;;0.85;0.65;;;14.10;99.90;;;;;;5085027;28;20032;-79
2022/04/08 10:28:37;;;;;;;19.25;1.40;;;14.20;99.90;;;;;;5087334;28;20024;-75
2022/04/08 10:31:20;;;;;;;5.72;0.88;;;14.20;99.90;;;;;;5094023;28;20016;-78
2022/04/08 10:33:59;;;;;;;6.53;1.33;;;14.30;99.90;;;;;;5092890;28;20021;-78
2022/04/08 10:36:32;;;;;;;2.30;0.95;;;14.60;99.90;;;;;;5079796;28;20019;-80
2022/04/08 10:39:13;;;;;;;;;;;16.10;99.90;;;;;;5100649;28;20033;-78
2022/04/08 10:41:52;;;;;;;2.53;0.95;;;16.50;99.90;;;;;;5094439;28;20378;-75
2022/04/08 10:44:32;;;;;;;2.45;1.98;;;16.30;99.90;;;;;;5089475;28;20115;-75
2022/04/08 10:47:00;;;;;;;6.97;0.75;;;16.60;99.90;;;;;;5078435;28;20044;-76
2022/04/08 10:49:26;;;;;;;2.65;0.57;;;16.20;99.90;;;;;;5082194;28;20070;-77
2022/04/08 10:51:52;;;;;;;1.88;1.20;;;15.80;99.90;;;;;;5072367;28;20086;-77
2022/04/08 10:54:19;;;;;;;0.10;0.10;;;15.50;99.90;;;;;;5066342;28;20813;-75
2022/04/08 10:56:56;;;;;;;0.70;0.70;;;15.70;99.90;;;;;;5069696;28;20036;-77
2022/04/08 10:59:27;;;;;;;1.02;0.73;;;15.80;99.90;;;;;;5056707;28;20032;-79
2022/04/08 11:02:03;;;;;;;38.58;4.10;;;15.70;99.90;;;;;;5055310;28;20032;-76
2022/04/08 11:04:29;;;;;;;0.00;0.00;;;15.80;99.90;;;;;;5071435;28;20024;-74
2022/04/08 11:06:55;;;;;;;0.68;0.65;;;15.90;99.90;;;;;;5076129;28;20064;-75
2022/04/08 11:09:22;;;;;;;29.50;3.20;;;16.20;99.90;;;;;;5077663;28;20082;-77
2022/04/08 11:11:52;;;;;;;10.63;0.77;;;16.10;99.90;;;;;;5065399;28;20032;-75
2022/04/08 11:14:19;;;;;;;0.55;0.55;;;16.10;99.90;;;;;;5071573;28;20028;-76
2022/04/08 11:16:47;;;;;;;0.10;0.10;;;15.80;99.90;;;;;;5071182;28;20718;-75
2022/04/08 11:19:13;;;;;;;0.75;0.55;;;15.40;99.90;;;;;;5067277;28;20035;-75
2022/04/08 11:21:40;;;;;;;0.52;0.45;;;15.00;99.90;;;;;;5075180;28;20032;-77
2022/04/08 11:24:11;;;;;;;3.15;0.30;;;14.90;99.90;;;;;;5077487;28;20162;-78
2022/04/08 11:26:48;;;;;;;0.68;0.68;;;14.70;99.90;;;;;;5083431;28;20035;-78
2022/04/08 11:29:16;;;;;;;2.10;1.55;;;14.70;99.90;;;;;;5072505;28;20120;-78
2022/04/08 11:31:43;;;;;;;1.45;0.55;;;14.70;99.90;;;;;;5074711;28;20089;-79
2022/04/08 11:34:09;;;;;;;0.55;0.52;;;14.70;99.90;;;;;;5068621;28;20043;-78
2022/04/08 11:36:36;;;;;;;1.42;1.15;;;14.50;99.90;;;;;;5073574;28;20104;-77
2022/04/08 11:39:04;;;;;;;16.58;1.65;;;14.60;99.90;;;;;;5069961;28;20036;-78
2022/04/08 11:41:30;;;;;;;3.05;1.77;;;14.60;99.90;;;;;;5081710;28;20027;-77
2022/04/08 11:43:56;;;;;;;0.40;0.40;;;14.50;99.90;;;;;;5078469;28;20049;-77
2022/04/08 11:46:23;;;;;;;1.17;1.02;;;14.50;99.90;;;;;;5081052;28;20502;-76
2022/04/08 11:48:49;;;;;;;21.05;1.45;;;14.50;99.90;;;;;;5068339;28;20155;-78
2022/04/08 11:51:19;;;;;;;3.08;1.35;;;14.60;99.90;;;;;;5069082;28;20021;-75
2022/04/08 11:53:49;;;;;;;0.05;0.05;;;14.80;99.90;;;;;;5067733;28;20099;-78
2022/04/08 11:56:26;;;;;;;4.15;0.65;;;15.00;99.90;;;;;;5067912;28;20491;-74
2022/04/08 11:59:04;;;;;;;0.28;0.28;;;15.00;99.90;;;;;;5051141;28;20043;-74
2022/04/08 12:01:37;;;;;;;0.25;0.25;;;15.00;99.90;;;;;;5056066;28;20024;-73
2022/04/08 12:04:07;;;;;;;0.85;0.50;;;14.80;99.90;;;;;;5075270;28;20039;-79
2022/04/08 12:06:39;;;;;;;0.10;0.10;;;14.50;99.90;;;;;;5069349;28;20023;-75
2022/04/08 12:09:05;;;;;;;3.03;1.08;;;14.30;99.90;;;;;;5054387;28;20496;-77
2022/04/08 12:11:32;;;;;;;0.25;0.25;;;14.30;99.90;;;;;;5074647;28;20031;-73
2022/04/08 12:13:58;;;;;;;8.73;2.47;;;14.30;99.90;;;;;;5073238;28;20415;-74
2022/04/08 12:16:29;;;;;;;1.02;0.55;;;14.30;99.90;;;;;;5069064;28;20025;-77
2022/04/08 12:18:55;;;;;;;1.10;1.08;;;14.30;99.90;;;;;;5069219;28;20117;-76
2022/04/08 12:21:26;;;;;;;1.70;1.08;;;14.30;99.90;;;;;;5070802;28;20058;-77
2022/04/08 12:23:54;;;;;;;16.98;2.47;;;14.20;99.90;;;;;;5069941;28;20102;-74
2022/04/08 12:26:24;;;;;;;2.35;2.15;;;13.90;99.90;;;;;;5077342;28;20032;-77
2022/04/08 12:28:49;;;;;;;0.85;0.40;;;13.70;99.90;;;;;;5070049;28;20103;-76
2022/04/08 12:31:21;;;;;;;5.20;2.53;;;13.70;99.90;;;;;;5063863;28;20436;-76
2022/04/08 12:33:47;;;;;;;2.30;1.83;;;13.80;99.90;;;;;;5067892;28;20016;-76
2022/04/08 12:36:13;;;;;;;10.75;0.47;;;13.90;99.90;;;;;;5069391;28;20130;-75
2022/04/08 12:38:40;;;;;;;1.88;0.38;;;13.90;99.90;;;;;;5050695;28;20040;-76
2022/04/08 12:41:07;;;;;;;1.80;1.55;;;14.00;99.90;;;;;;5068455;28;20020;-77
2022/04/08 12:43:33;;;;;;;29.38;2.08;;;14.00;99.90;;;;;;5074266;28;20407;-76
2022/04/08 12:45:59;;;;;;;3.05;1.45;;;14.00;99.90;;;;;;5089276;28;20443;-77